Alpine, California
Current Conditions -  °F | °C
As of 2:55 PM on Thursday 23 Oct 2014 (Local Time) from KSEE Reporting Station
Clear Clear  
Wind Chill: 90°   Ceiling: Unl
Heat Index: 90°   Visibility: 10mi
Dew Point: 48°   Wind: 7mph
Humidity: 24%   Direction: 280°W
Pressure: 29.93"   Gusts: NA
Location:  32.83°N, 116.75°W
Report Text: KSEE 232155Z AUTO 28006KT 10SM CLR 32/09 A2993 RMK AO2
Loading
Personal Weather Stations






























Interactive Weather Map
Tropical Storm Tracking
New forecast layout! Learn more

10-Day Weather Forecast

Advertisements
Track Severe Weather on mobile